Time;durP1;ratioP1;P1;durP2;ratioP2;P2;SDS_P1;SDS_P2;PMS_P1;PMS_P2;Temp;Humidity;BMP_temperature;BMP_pressure;BME280_temperature;BME280_humidity;BME280_pressure;Samples;Min_cycle;Max_cycle;Signal;HPM_P1;HPM_P2
2023/02/01 00:01:32;;;;;;;1999.90;999.90;;;6.50;99.90;;;;;;5052569;28;20175;-69
2023/02/01 00:03:57;;;;;;;1999.90;999.90;;;6.60;99.90;;;;;;5053118;28;20511;-69
2023/02/01 00:06:23;;;;;;;1999.90;999.90;;;6.50;99.90;;;;;;5053463;28;20632;-69
2023/02/01 00:08:52;;;;;;;1999.90;999.90;;;6.40;99.90;;;;;;5053061;28;20183;-69
2023/02/01 00:11:17;;;;;;;1999.90;999.90;;;6.40;99.90;;;;;;5053358;28;20210;-69
2023/02/01 00:13:43;;;;;;;1999.90;999.90;;;6.30;99.90;;;;;;5053547;28;20395;-69
2023/02/01 00:16:29;;;;;;;1999.90;999.90;;;6.30;99.90;;;;;;5053735;28;20254;-69
2023/02/01 00:19:12;;;;;;;1999.90;999.90;;;6.30;99.90;;;;;;5053143;28;20180;-69
2023/02/01 00:21:38;;;;;;;1999.90;999.90;;;6.30;99.90;;;;;;5052794;28;20409;-69
2023/02/01 00:24:04;;;;;;;1999.90;999.90;;;6.30;99.90;;;;;;5053213;28;20394;-69
2023/02/01 00:26:36;;;;;;;1999.90;999.90;;;6.20;99.90;;;;;;5052844;28;20424;-69
2023/02/01 00:29:03;;;;;;;1999.90;999.90;;;6.30;99.90;;;;;;5053105;28;20414;-69
2023/02/01 00:31:28;;;;;;;1999.90;999.90;;;6.30;99.90;;;;;;5052515;28;20429;-69
2023/02/01 00:33:54;;;;;;;1999.90;999.90;;;6.30;99.90;;;;;;5052902;28;20739;-69
2023/02/01 00:36:20;;;;;;;1999.90;999.90;;;6.30;99.90;;;;;;5052579;28;20192;-69
2023/02/01 00:38:46;;;;;;;1999.90;999.90;;;6.40;99.90;;;;;;5052361;28;20187;-69
2023/02/01 00:41:19;;;;;;;1999.90;999.90;;;6.40;99.90;;;;;;5052144;28;20175;-69
2023/02/01 00:43:46;;;;;;;1999.90;999.90;;;6.40;99.90;;;;;;5052336;28;20405;-69
2023/02/01 00:46:14;;;;;;;1999.90;999.90;;;6.40;99.90;;;;;;5052916;28;20437;-69
2023/02/01 00:48:39;;;;;;;1999.90;999.90;;;6.40;99.90;;;;;;5052445;28;20480;-69
2023/02/01 00:51:27;;;;;;;1999.90;999.90;;;6.40;99.90;;;;;;5052340;28;20441;-70
2023/02/01 00:53:53;;;;;;;1999.90;999.90;;;6.40;99.90;;;;;;5052327;28;20398;-69
2023/02/01 00:56:20;;;;;;;1999.90;999.90;;;6.40;99.90;;;;;;5052506;28;20406;-69
2023/02/01 00:58:45;;;;;;;1999.90;999.90;;;6.40;99.90;;;;;;5052396;28;20446;-69
2023/02/01 01:01:17;;;;;;;1999.90;999.90;;;6.40;99.90;;;;;;5052489;28;20425;-69
2023/02/01 01:03:50;;;;;;;1999.90;999.90;;;6.40;99.90;;;;;;5053004;28;20251;-69
2023/02/01 01:06:19;;;;;;;1999.90;999.90;;;6.40;99.90;;;;;;5056239;28;20448;-69
2023/02/01 01:08:45;;;;;;;1999.90;999.90;;;6.40;99.90;;;;;;5056213;28;20421;-69
2023/02/01 01:11:20;;;;;;;1999.90;999.90;;;6.40;99.90;;;;;;5055835;28;20457;-69
2023/02/01 01:13:47;;;;;;;1999.90;999.90;;;6.50;99.90;;;;;;5055922;28;20168;-69
2023/02/01 01:16:13;;;;;;;1999.90;999.90;;;6.40;99.90;;;;;;5055903;28;20406;-69
2023/02/01 01:18:39;;;;;;;1999.90;999.90;;;6.40;99.90;;;;;;5055862;28;20430;-69
2023/02/01 01:21:06;;;;;;;1999.90;999.90;;;6.40;99.90;;;;;;5055825;28;20172;-69
2023/02/01 01:23:31;;;;;;;1999.90;999.90;;;6.30;99.90;;;;;;5055813;28;20406;-69
2023/02/01 01:25:58;;;;;;;1999.90;999.90;;;6.20;99.90;;;;;;5056116;28;20455;-69
2023/02/01 01:28:24;;;;;;;1999.90;999.90;;;6.30;99.90;;;;;;5056823;28;20656;-69
2023/02/01 01:30:49;;;;;;;1999.90;999.90;;;6.30;99.90;;;;;;5056180;28;20453;-69
2023/02/01 01:33:15;;;;;;;1999.90;999.90;;;6.20;99.90;;;;;;5056502;28;20592;-69
2023/02/01 01:35:41;;;;;;;1999.90;999.90;;;6.20;99.90;;;;;;5056396;28;20164;-69
2023/02/01 01:38:09;;;;;;;1999.90;999.90;;;6.20;99.90;;;;;;5056451;28;20257;-69
2023/02/01 01:40:34;;;;;;;1999.90;999.90;;;6.10;99.90;;;;;;5056113;28;20459;-69
2023/02/01 01:43:00;;;;;;;1999.90;999.90;;;6.10;99.90;;;;;;5055909;28;20410;-69
2023/02/01 01:45:33;;;;;;;1999.90;999.90;;;6.10;99.90;;;;;;5056458;28;20164;-70
2023/02/01 01:48:05;;;;;;;1999.90;999.90;;;6.10;99.90;;;;;;5056271;28;20191;-69
2023/02/01 01:50:35;;;;;;;1999.90;999.90;;;6.10;99.90;;;;;;5056297;28;20450;-69
2023/02/01 01:53:04;;;;;;;1999.90;999.90;;;6.10;99.90;;;;;;5056212;28;20414;-69
2023/02/01 01:55:33;;;;;;;1999.90;999.90;;;6.20;99.90;;;;;;5055875;28;20394;-69
2023/02/01 01:58:04;;;;;;;1999.90;999.90;;;6.20;99.90;;;;;;5054831;28;20441;-69
2023/02/01 02:00:30;;;;;;;1999.90;999.90;;;6.10;99.90;;;;;;5055920;28;20438;-69
2023/02/01 02:03:19;;;;;;;1999.90;999.90;;;6.20;99.90;;;;;;5056217;28;20445;-69
2023/02/01 02:05:47;;;;;;;1999.90;999.90;;;6.20;99.90;;;;;;5038551;28;20187;-69
2023/02/01 02:08:13;;;;;;;1999.90;999.90;;;6.20;99.90;;;;;;5055623;28;20980;-69
2023/02/01 02:13:24;;;;;;;1999.90;999.90;;;6.30;99.90;;;;;;5056678;28;20406;-70
2023/02/01 02:16:05;;;;;;;1999.90;999.90;;;6.30;99.90;;;;;;5055182;28;20401;-69
2023/02/01 02:18:41;;;;;;;1999.90;999.90;;;6.40;99.90;;;;;;5055593;28;20443;-69
2023/02/01 02:21:44;;;;;;;1999.90;999.90;;;6.40;99.90;;;;;;5055149;28;20410;-69
2023/02/01 02:24:46;;;;;;;1999.90;999.90;;;6.40;99.90;;;;;;5056322;28;20398;-69
2023/02/01 02:27:43;;;;;;;1999.90;999.90;;;6.40;99.90;;;;;;5055773;28;20777;-69
2023/02/01 02:30:37;;;;;;;1999.90;999.90;;;6.40;99.90;;;;;;5004366;28;20470;-69
2023/02/01 02:33:29;;;;;;;1999.90;999.90;;;6.50;99.90;;;;;;5055480;28;20409;-69
2023/02/01 02:36:10;;;;;;;1999.90;999.90;;;6.50;99.90;;;;;;5055025;28;20429;-69
2023/02/01 02:38:47;;;;;;;1999.90;999.90;;;6.50;99.90;;;;;;5055249;28;20424;-69
2023/02/01 02:47:42;;;;;;;1999.90;999.90;;;6.50;99.90;;;;;;5055162;28;20792;-69
2023/02/01 03:04:56;;;;;;;1999.90;999.90;;;6.50;99.90;;;;;;5054894;28;20908;-69
2023/02/01 03:07:49;;;;;;;1999.90;999.90;;;6.50;99.90;;;;;;5054803;28;20409;-69
2023/02/01 03:10:20;;;;;;;1999.90;999.90;;;6.50;99.90;;;;;;5054796;28;20806;-69
2023/02/01 03:12:55;;;;;;;1999.90;999.90;;;6.50;99.90;;;;;;5054993;28;20538;-69
2023/02/01 03:15:26;;;;;;;1999.90;999.90;;;6.50;99.90;;;;;;5054824;28;20401;-69
2023/02/01 03:17:55;;;;;;;1999.90;999.90;;;6.40;99.90;;;;;;5054621;28;20394;-69
2023/02/01 03:20:22;;;;;;;1999.90;999.90;;;6.50;99.90;;;;;;5054313;28;20398;-69
2023/02/01 03:22:50;;;;;;;1999.90;999.90;;;6.50;99.90;;;;;;5054409;28;20394;-70
2023/02/01 03:25:22;;;;;;;1999.90;999.90;;;6.50;99.90;;;;;;5054542;28;20943;-69
2023/02/01 03:27:53;;;;;;;1999.90;999.90;;;6.60;99.90;;;;;;5053375;28;20402;-69
2023/02/01 03:30:34;;;;;;;1999.90;999.90;;;6.40;99.90;;;;;;5054440;28;20450;-69
2023/02/01 03:33:07;;;;;;;1999.90;999.90;;;6.40;99.90;;;;;;5054448;28;20394;-69
2023/02/01 03:35:35;;;;;;;1999.90;999.90;;;6.40;99.90;;;;;;5054420;28;20402;-69
2023/02/01 03:38:13;;;;;;;1999.90;999.90;;;6.40;99.90;;;;;;5054599;28;20458;-69
2023/02/01 03:40:41;;;;;;;1999.90;999.90;;;6.40;99.90;;;;;;5054007;28;20795;-69
2023/02/01 03:43:14;;;;;;;1999.90;999.90;;;6.30;99.90;;;;;;5054346;28;20409;-69
2023/02/01 03:45:43;;;;;;;1999.90;999.90;;;6.30;99.90;;;;;;5053895;28;20728;-69
2023/02/01 03:48:12;;;;;;;1999.90;999.90;;;6.30;99.90;;;;;;5053663;28;20504;-69
2023/02/01 03:50:43;;;;;;;1999.90;999.90;;;6.30;99.90;;;;;;5053487;28;20850;-69
2023/02/01 03:53:14;;;;;;;1999.90;999.90;;;6.30;99.90;;;;;;5053864;28;20457;-70
2023/02/01 03:55:40;;;;;;;1999.90;999.90;;;6.30;99.90;;;;;;5054397;28;20410;-69
2023/02/01 03:58:11;;;;;;;1999.90;999.90;;;6.30;99.90;;;;;;5054066;28;20438;-70
2023/02/01 04:00:37;;;;;;;1999.90;999.90;;;6.20;99.90;;;;;;5052325;28;20413;-70
2023/02/01 04:03:04;;;;;;;1999.90;999.90;;;6.20;99.90;;;;;;5052355;28;20438;-70
2023/02/01 04:05:30;;;;;;;1999.90;999.90;;;6.20;99.90;;;;;;5052351;28;20921;-70
2023/02/01 04:07:56;;;;;;;1999.90;999.90;;;6.20;99.90;;;;;;5052238;28;20426;-70
2023/02/01 04:10:22;;;;;;;1999.90;999.90;;;6.20;99.90;;;;;;5052089;28;20206;-70
2023/02/01 04:12:48;;;;;;;1999.90;999.90;;;6.10;99.90;;;;;;5052372;28;20846;-70
2023/02/01 04:15:13;;;;;;;1999.90;999.90;;;6.20;99.90;;;;;;5052356;28;20405;-70
2023/02/01 04:17:39;;;;;;;1999.90;999.90;;;6.00;99.90;;;;;;5052091;28;20179;-70
2023/02/01 04:20:05;;;;;;;1999.90;999.90;;;6.10;99.90;;;;;;5051922;28;20592;-70
2023/02/01 04:22:31;;;;;;;1999.90;999.90;;;6.20;99.90;;;;;;5052289;28;20233;-70
2023/02/01 04:24:57;;;;;;;1999.90;999.90;;;6.10;99.90;;;;;;5052305;28;20806;-69
2023/02/01 04:27:22;;;;;;;1999.90;999.90;;;6.20;99.90;;;;;;5051905;28;20438;-69
2023/02/01 04:29:49;;;;;;;1999.90;999.90;;;6.20;99.90;;;;;;5051787;28;20208;-70
2023/02/01 04:32:15;;;;;;;1999.90;999.90;;;6.20;99.90;;;;;;5051917;28;20168;-69
2023/02/01 04:34:41;;;;;;;1999.90;999.90;;;6.20;99.90;;;;;;5052166;28;20453;-69
2023/02/01 04:37:07;;;;;;;1999.90;999.90;;;6.30;99.90;;;;;;5051762;28;20432;-69
2023/02/01 04:39:33;;;;;;;1999.90;999.90;;;6.10;99.90;;;;;;5051659;28;20199;-70
2023/02/01 04:41:58;;;;;;;1999.90;999.90;;;6.10;99.90;;;;;;5051977;28;20183;-69
2023/02/01 04:44:24;;;;;;;1999.90;999.90;;;6.00;99.90;;;;;;5051884;28;20406;-69
2023/02/01 04:46:49;;;;;;;1999.90;999.90;;;6.00;99.90;;;;;;5051709;28;20182;-70
2023/02/01 04:49:15;;;;;;;1999.90;999.90;;;6.00;99.90;;;;;;5051651;28;20191;-69
2023/02/01 04:51:42;;;;;;;1999.90;999.90;;;6.00;99.90;;;;;;5051758;28;20654;-69
2023/02/01 04:54:08;;;;;;;1999.90;999.90;;;5.90;99.90;;;;;;5051872;28;20630;-69
2023/02/01 04:56:37;;;;;;;1999.90;999.90;;;5.90;99.90;;;;;;5051704;28;20406;-69
2023/02/01 04:59:04;;;;;;;1999.90;999.90;;;5.90;99.90;;;;;;5051645;28;20446;-70
2023/02/01 05:01:30;;;;;;;1999.90;999.90;;;5.90;99.90;;;;;;5051500;28;20411;-70
2023/02/01 05:03:55;;;;;;;1999.90;999.90;;;5.90;99.90;;;;;;5051658;28;20410;-70
2023/02/01 05:06:21;;;;;;;1999.90;999.90;;;5.80;99.90;;;;;;5051496;28;20420;-69
2023/02/01 05:08:47;;;;;;;1999.90;999.90;;;5.80;99.90;;;;;;5051551;28;20191;-70
2023/02/01 05:13:58;;;;;;;1999.90;999.90;;;5.80;99.90;;;;;;5051899;28;20210;-70
2023/02/01 05:16:23;;;;;;;1999.90;999.90;;;5.70;99.90;;;;;;5051632;28;20822;-69
2023/02/01 05:18:49;;;;;;;1999.90;999.90;;;5.80;99.90;;;;;;5051537;28;20497;-70
2023/02/01 05:21:15;;;;;;;1999.90;999.90;;;5.70;99.90;;;;;;5051284;28;20675;-70
2023/02/01 05:26:25;;;;;;;1999.90;999.90;;;5.80;99.90;;;;;;5051625;28;20222;-69
2023/02/01 05:28:51;;;;;;;1999.90;999.90;;;5.80;99.90;;;;;;5051524;28;20422;-69
2023/02/01 05:31:17;;;;;;;1999.90;999.90;;;5.80;99.90;;;;;;5051285;28;20199;-69
2023/02/01 05:33:42;;;;;;;1999.90;999.90;;;5.70;99.90;;;;;;5051575;28;20744;-70
2023/02/01 05:36:08;;;;;;;1999.90;999.90;;;5.70;99.90;;;;;;5051262;28;20542;-70
2023/02/01 05:38:33;;;;;;;1999.90;999.90;;;5.70;99.90;;;;;;5051653;28;20188;-70
2023/02/01 05:40:59;;;;;;;1999.90;999.90;;;5.60;99.90;;;;;;5051166;28;20605;-70
2023/02/01 05:43:24;;;;;;;1999.90;999.90;;;5.60;99.90;;;;;;5051374;28;20178;-69
2023/02/01 05:45:52;;;;;;;1999.90;999.90;;;5.70;99.90;;;;;;5051234;28;20250;-69
2023/02/01 05:48:18;;;;;;;1999.90;999.90;;;5.70;99.90;;;;;;5051255;28;20210;-69
2023/02/01 05:50:44;;;;;;;1999.90;999.90;;;5.60;99.90;;;;;;5053361;28;20449;-69
2023/02/01 05:53:10;;;;;;;1999.90;999.90;;;5.60;99.90;;;;;;5055030;28;20167;-69
2023/02/01 05:55:36;;;;;;;1999.90;999.90;;;5.60;99.90;;;;;;5054858;28;20406;-69
2023/02/01 05:58:02;;;;;;;1999.90;999.90;;;5.60;99.90;;;;;;5055028;28;20682;-69
2023/02/01 06:00:27;;;;;;;1999.90;999.90;;;5.60;99.90;;;;;;5054580;28;20410;-69
2023/02/01 06:02:53;;;;;;;1999.90;999.90;;;5.60;99.90;;;;;;5054748;28;20611;-69
2023/02/01 06:05:19;;;;;;;1999.90;999.90;;;5.50;99.90;;;;;;5036640;28;20263;-69
2023/02/01 06:07:44;;;;;;;1999.90;999.90;;;5.50;99.90;;;;;;5054487;28;20625;-69
2023/02/01 06:10:10;;;;;;;1999.90;999.90;;;5.50;99.90;;;;;;5054317;28;20192;-69
2023/02/01 06:12:36;;;;;;;1999.90;999.90;;;5.40;99.90;;;;;;5054502;28;20214;-69
2023/02/01 06:15:01;;;;;;;1999.90;999.90;;;5.50;99.90;;;;;;5054504;28;20430;-69
2023/02/01 06:17:27;;;;;;;1999.90;999.90;;;5.50;99.90;;;;;;5054368;28;20191;-69
2023/02/01 06:19:52;;;;;;;1999.90;999.90;;;5.50;99.90;;;;;;5054292;28;20652;-69
2023/02/01 06:22:18;;;;;;;1999.90;999.90;;;5.50;99.90;;;;;;5054424;28;20210;-69
2023/02/01 06:24:44;;;;;;;1999.90;999.90;;;5.50;99.90;;;;;;5054335;28;20196;-69
2023/02/01 06:27:09;;;;;;;1999.90;999.90;;;5.50;99.90;;;;;;5054340;28;20651;-69
2023/02/01 06:29:35;;;;;;;1999.90;999.90;;;5.40;99.90;;;;;;5054271;28;20200;-69
2023/02/01 06:32:02;;;;;;;1999.90;999.90;;;5.50;99.90;;;;;;5054264;28;20425;-69
2023/02/01 06:34:28;;;;;;;1999.90;999.90;;;5.50;99.90;;;;;;5053980;28;20957;-69
2023/02/01 06:36:54;;;;;;;1999.90;999.90;;;5.40;99.90;;;;;;5054060;28;20406;-69
2023/02/01 06:39:20;;;;;;;1999.90;999.90;;;5.50;99.90;;;;;;5053700;28;20241;-69
2023/02/01 06:41:47;;;;;;;1999.90;999.90;;;5.50;99.90;;;;;;5053875;28;20481;-69
2023/02/01 06:44:13;;;;;;;1999.90;999.90;;;5.40;99.90;;;;;;5053925;28;20168;-69
2023/02/01 06:46:38;;;;;;;1999.90;999.90;;;5.40;99.90;;;;;;5053843;28;20460;-69
2023/02/01 06:49:04;;;;;;;1999.90;999.90;;;5.40;99.90;;;;;;5053697;28;20618;-69
2023/02/01 06:51:30;;;;;;;1999.90;999.90;;;5.40;99.90;;;;;;5053733;28;20273;-69
2023/02/01 06:53:56;;;;;;;1999.90;999.90;;;5.30;99.90;;;;;;5053690;28;20168;-69
2023/02/01 06:56:21;;;;;;;1999.90;999.90;;;5.30;99.90;;;;;;5053840;28;20198;-69
2023/02/01 06:58:47;;;;;;;1999.90;999.90;;;5.30;99.90;;;;;;5053607;28;20982;-69
2023/02/01 07:01:14;;;;;;;1999.90;999.90;;;5.30;99.90;;;;;;5053430;28;20250;-69
2023/02/01 07:03:39;;;;;;;1999.90;999.90;;;5.30;99.90;;;;;;5053770;28;20441;-70
2023/02/01 07:06:06;;;;;;;1999.90;999.90;;;5.30;99.90;;;;;;5053616;28;21120;-69
2023/02/01 07:08:33;;;;;;;1999.90;999.90;;;5.30;99.90;;;;;;5053377;28;20211;-69
2023/02/01 07:11:08;;;;;;;1999.90;999.90;;;5.30;99.90;;;;;;5053234;28;20515;-69
2023/02/01 07:13:34;;;;;;;1999.90;999.90;;;5.30;99.90;;;;;;5053348;28;20408;-69
2023/02/01 07:16:02;;;;;;;1999.90;999.90;;;5.30;99.90;;;;;;5053266;28;20841;-69
2023/02/01 07:18:28;;;;;;;1999.90;999.90;;;5.30;99.90;;;;;;5053190;28;20421;-69
2023/02/01 07:20:55;;;;;;;1999.90;999.90;;;5.30;99.90;;;;;;5053172;28;20954;-69
2023/02/01 07:23:20;;;;;;;1999.90;999.90;;;5.30;99.90;;;;;;5053237;28;20448;-69
2023/02/01 07:25:46;;;;;;;1999.90;999.90;;;5.30;99.90;;;;;;5053149;28;20437;-69
2023/02/01 07:28:12;;;;;;;1999.90;999.90;;;5.30;99.90;;;;;;5053242;28;20191;-69
2023/02/01 07:30:37;;;;;;;1999.90;999.90;;;5.20;99.90;;;;;;5052776;28;20557;-69
2023/02/01 07:33:03;;;;;;;1999.90;999.90;;;5.30;99.90;;;;;;5052949;28;20171;-69
2023/02/01 07:35:29;;;;;;;1999.90;999.90;;;5.30;99.90;;;;;;5052887;28;20164;-69
2023/02/01 07:37:57;;;;;;;1999.90;999.90;;;5.70;99.90;;;;;;5052716;28;20228;-69
2023/02/01 07:40:28;;;;;;;1999.90;999.90;;;5.20;99.90;;;;;;5052875;28;20431;-70
2023/02/01 07:42:56;;;;;;;1999.90;999.90;;;5.30;99.90;;;;;;5052715;28;20411;-69
2023/02/01 07:45:23;;;;;;;1999.90;999.90;;;5.30;99.90;;;;;;5052862;28;20425;-69
2023/02/01 07:47:51;;;;;;;1999.90;999.90;;;5.30;99.90;;;;;;5052481;28;20418;-69
2023/02/01 07:50:17;;;;;;;1999.90;999.90;;;5.40;99.90;;;;;;5052367;28;20821;-69
2023/02/01 07:52:42;;;;;;;1999.90;999.90;;;5.40;99.90;;;;;;5052836;28;20410;-69
2023/02/01 07:55:08;;;;;;;1999.90;999.90;;;5.40;99.90;;;;;;5052818;28;20636;-69
2023/02/01 07:57:34;;;;;;;1999.90;999.90;;;5.40;99.90;;;;;;5052607;28;20168;-69
2023/02/01 08:02:43;;;;;;;1999.90;999.90;;;5.40;99.90;;;;;;5052406;28;20187;-69
2023/02/01 08:05:09;;;;;;;1999.90;999.90;;;5.40;99.90;;;;;;5052400;28;20888;-69
2023/02/01 08:07:35;;;;;;;1999.90;999.90;;;5.40;99.90;;;;;;5052285;28;20179;-69
2023/02/01 08:10:00;;;;;;;1999.90;999.90;;;5.40;99.90;;;;;;5051982;28;20240;-69
2023/02/01 08:12:26;;;;;;;1999.90;999.90;;;5.50;99.90;;;;;;5051932;28;20163;-69
2023/02/01 08:14:53;;;;;;;1999.90;999.90;;;5.50;99.90;;;;;;5052503;28;20275;-69
2023/02/01 08:17:19;;;;;;;1999.90;999.90;;;5.50;99.90;;;;;;5051969;28;20769;-69
2023/02/01 08:19:44;;;;;;;1999.90;999.90;;;5.50;99.90;;;;;;5052010;28;20433;-69
2023/02/01 08:22:10;;;;;;;1999.90;999.90;;;5.60;99.90;;;;;;5052154;28;20829;-69
2023/02/01 08:24:39;;;;;;;1999.90;999.90;;;5.60;99.90;;;;;;5052116;28;20180;-69
2023/02/01 08:27:04;;;;;;;1999.90;999.90;;;5.60;99.90;;;;;;5052019;28;20184;-69
2023/02/01 08:29:30;;;;;;;1999.90;999.90;;;5.60;99.90;;;;;;5051676;28;20781;-69
2023/02/01 08:31:56;;;;;;;1999.90;999.90;;;5.60;99.90;;;;;;5052131;28;20184;-69
2023/02/01 08:34:22;;;;;;;1999.90;999.90;;;5.60;99.90;;;;;;5052140;28;20601;-69
2023/02/01 08:36:47;;;;;;;1999.90;999.90;;;5.50;99.90;;;;;;5052127;28;20540;-69
2023/02/01 08:39:13;;;;;;;1999.90;999.90;;;5.60;99.90;;;;;;5051968;28;20426;-69
2023/02/01 08:41:38;;;;;;;1999.90;999.90;;;5.60;99.90;;;;;;5051680;28;20233;-69
2023/02/01 08:44:04;;;;;;;1999.90;999.90;;;5.60;99.90;;;;;;5042494;28;20606;-69
2023/02/01 08:46:30;;;;;;;1999.90;999.90;;;5.70;99.90;;;;;;5031758;28;20543;-69
2023/02/01 08:48:56;;;;;;;1999.90;999.90;;;5.70;99.90;;;;;;5031788;28;20796;-69
2023/02/01 08:51:23;;;;;;;1999.90;999.90;;;5.80;99.90;;;;;;5031742;28;20215;-69
2023/02/01 08:53:49;;;;;;;1999.90;999.90;;;5.80;99.90;;;;;;5031876;28;20173;-69
2023/02/01 08:56:16;;;;;;;1999.90;999.90;;;5.90;99.90;;;;;;5032043;28;20411;-70
2023/02/01 08:58:43;;;;;;;1999.90;999.90;;;6.00;99.90;;;;;;5031634;28;20462;-69
2023/02/01 09:01:12;;;;;;;1999.90;999.90;;;6.00;99.90;;;;;;5031560;28;20415;-69
2023/02/01 09:03:37;;;;;;;1999.90;999.90;;;6.10;99.90;;;;;;5031702;28;20912;-70
2023/02/01 09:06:12;;;;;;;1999.90;999.90;;;6.10;99.90;;;;;;5031666;28;20411;-69
2023/02/01 09:08:38;;;;;;;1999.90;999.90;;;6.10;99.90;;;;;;5031715;28;20211;-69
2023/02/01 09:11:07;;;;;;;1999.90;999.90;;;6.10;99.90;;;;;;5031375;28;20501;-70
2023/02/01 09:13:33;;;;;;;1999.90;999.90;;;6.10;99.90;;;;;;5031579;28;20409;-69
2023/02/01 09:15:59;;;;;;;1999.90;999.90;;;6.10;99.90;;;;;;5031489;28;20445;-69
2023/02/01 09:18:25;;;;;;;1999.90;999.90;;;6.10;99.90;;;;;;5031818;28;20498;-69
2023/02/01 09:20:51;;;;;;;1999.90;999.90;;;6.20;99.90;;;;;;5031345;28;20187;-69
2023/02/01 09:23:17;;;;;;;1999.90;999.90;;;6.20;99.90;;;;;;5031560;28;20414;-69
2023/02/01 09:25:42;;;;;;;1999.90;999.90;;;6.20;99.90;;;;;;5033827;28;20703;-69
2023/02/01 09:28:08;;;;;;;1999.90;999.90;;;6.20;99.90;;;;;;5032332;28;20551;-70
2023/02/01 09:30:36;;;;;;;1999.90;999.90;;;6.20;99.90;;;;;;5034582;28;20273;-68
2023/02/01 09:33:02;;;;;;;1999.90;999.90;;;6.20;99.90;;;;;;5036069;28;20766;-69
2023/02/01 09:35:28;;;;;;;1999.90;999.90;;;6.20;99.90;;;;;;5036338;28;20395;-68
2023/02/01 09:37:53;;;;;;;1999.90;999.90;;;6.20;99.90;;;;;;5036411;28;20452;-69
2023/02/01 09:40:19;;;;;;;1999.90;999.90;;;6.30;99.90;;;;;;5035900;28;20932;-68
2023/02/01 09:42:57;;;;;;;1999.90;999.90;;;6.30;99.90;;;;;;5034659;28;20176;-69
2023/02/01 09:46:08;;;;;;;1999.90;999.90;;;6.40;99.90;;;;;;5034608;28;20485;-70
2023/02/01 09:48:39;;;;;;;1999.90;999.90;;;6.50;99.90;;;;;;5034596;28;20434;-71
2023/02/01 09:51:12;;;;;;;1999.90;999.90;;;6.60;99.90;;;;;;5016221;28;20806;-70
2023/02/01 09:53:42;;;;;;;1999.90;999.90;;;6.60;99.90;;;;;;5034642;28;20409;-70
2023/02/01 09:56:36;;;;;;;1999.90;999.90;;;6.60;99.90;;;;;;5034829;28;20410;-69
2023/02/01 09:59:15;;;;;;;1999.90;999.90;;;6.60;99.90;;;;;;5034151;28;20467;-70
2023/02/01 10:01:42;;;;;;;1999.90;999.90;;;6.70;99.90;;;;;;5034509;28;20405;-69
2023/02/01 10:04:13;;;;;;;1999.90;999.90;;;6.70;99.90;;;;;;5033205;28;20521;-69
2023/02/01 10:07:14;;;;;;;1999.90;999.90;;;6.90;99.90;;;;;;5032717;28;20395;-69
2023/02/01 10:09:51;;;;;;;1999.90;999.90;;;6.80;99.90;;;;;;5033253;28;20458;-69
2023/02/01 10:12:36;;;;;;;1999.90;999.90;;;6.90;99.90;;;;;;5033256;28;20403;-69
2023/02/01 10:15:34;;;;;;;1999.90;999.90;;;7.10;99.90;;;;;;5033478;28;20400;-69
2023/02/01 10:18:19;;;;;;;1999.90;999.90;;;7.20;99.90;;;;;;5032910;28;20422;-69
2023/02/01 10:20:45;;;;;;;1999.90;999.90;;;7.30;99.90;;;;;;5032668;28;20403;-69
2023/02/01 10:23:13;;;;;;;1999.90;999.90;;;7.30;99.90;;;;;;5033419;28;20519;-70
2023/02/01 10:26:02;;;;;;;1999.90;999.90;;;7.20;99.90;;;;;;5033137;28;20251;-69
2023/02/01 10:28:27;;;;;;;1999.90;999.90;;;7.10;99.90;;;;;;5032208;28;20435;-69
2023/02/01 10:30:58;;;;;;;1999.90;999.90;;;7.10;99.90;;;;;;5033673;28;20459;-69
2023/02/01 10:33:27;;;;;;;1999.90;999.90;;;7.20;99.90;;;;;;5032229;28;20164;-69
2023/02/01 10:35:59;;;;;;;1999.90;999.90;;;7.30;99.90;;;;;;5033017;28;20470;-68
2023/02/01 10:38:28;;;;;;;1999.90;999.90;;;7.40;99.90;;;;;;5066060;23;20488;-68
2023/02/01 10:41:01;;;;;;;1999.90;999.90;;;7.40;99.90;;;;;;5061194;28;20399;-68
2023/02/01 10:43:27;;;;;;;1999.90;999.90;;;7.50;99.90;;;;;;5064166;28;20408;-68
2023/02/01 10:45:53;;;;;;;1999.90;999.90;;;7.50;99.90;;;;;;5063876;28;20424;-68
2023/02/01 10:48:19;;;;;;;1999.90;999.90;;;7.40;99.90;;;;;;5071370;22;20908;-69
2023/02/01 10:51:00;;;;;;;1999.90;999.90;;;7.40;99.90;;;;;;5073223;28;20194;-69
2023/02/01 10:53:38;;;;;;;1999.90;999.90;;;7.50;99.90;;;;;;5053232;28;20402;-69
2023/02/01 10:56:13;;;;;;;1999.90;999.90;;;7.60;99.90;;;;;;5054641;28;20976;-68
2023/02/01 10:58:46;;;;;;;1999.90;999.90;;;7.60;99.90;;;;;;5052272;28;20426;-69
2023/02/01 11:01:23;;;;;;;1999.90;999.90;;;7.70;99.90;;;;;;5033061;28;20498;-69
2023/02/01 11:03:57;;;;;;;1999.90;999.90;;;7.50;99.90;;;;;;5032945;28;20387;-69
2023/02/01 11:06:28;;;;;;;1999.90;999.90;;;7.60;99.90;;;;;;5033446;28;20425;-69
2023/02/01 11:09:00;;;;;;;1999.90;999.90;;;7.70;99.90;;;;;;5033042;28;20999;-69
2023/02/01 11:11:26;;;;;;;1999.90;999.90;;;7.60;99.90;;;;;;5032517;28;20984;-70
2023/02/01 11:14:01;;;;;;;1999.90;999.90;;;7.60;99.90;;;;;;5046044;28;20501;-69
2023/02/01 11:16:36;;;;;;;1999.90;999.90;;;7.70;99.90;;;;;;5044544;28;20394;-69
2023/02/01 11:19:02;;;;;;;1999.90;999.90;;;7.80;99.90;;;;;;5051781;28;20475;-69
2023/02/01 11:21:28;;;;;;;1999.90;999.90;;;7.90;99.90;;;;;;5052534;28;20911;-69
2023/02/01 11:23:54;;;;;;;1999.90;999.90;;;7.90;99.90;;;;;;5053024;28;20502;-69
2023/02/01 11:26:27;;;;;;;1999.90;999.90;;;8.00;1.00;;;;;;5052547;28;20967;-69
2023/02/01 11:28:59;;;;;;;1999.90;999.90;;;8.10;1.00;;;;;;5052623;28;20802;-69
2023/02/01 11:31:26;;;;;;;1999.90;999.90;;;8.10;1.00;;;;;;5034515;28;20454;-69
2023/02/01 11:34:04;;;;;;;1999.90;999.90;;;8.10;99.90;;;;;;5051358;28;20437;-69
2023/02/01 11:36:33;;;;;;;1999.90;999.90;;;8.10;99.90;;;;;;5036532;28;20393;-69
2023/02/01 11:39:18;;;;;;;1999.90;999.90;;;8.00;99.90;;;;;;5052677;28;21036;-68
2023/02/01 11:41:58;;;;;;;1999.90;999.90;;;8.00;99.90;;;;;;5051518;28;20393;-69
2023/02/01 11:44:42;;;;;;;1999.90;999.90;;;7.90;99.90;;;;;;5052797;28;20382;-69
2023/02/01 11:47:25;;;;;;;1999.90;999.90;;;8.20;99.90;;;;;;5046919;28;20460;-69
2023/02/01 11:49:53;;;;;;;1999.90;999.90;;;7.90;99.90;;;;;;5034889;28;20458;-69
2023/02/01 11:52:32;;;;;;;1999.90;999.90;;;8.00;99.90;;;;;;5052093;28;20497;-69
2023/02/01 11:55:25;;;;;;;1999.90;999.90;;;8.10;99.90;;;;;;5052273;28;20748;-69
2023/02/01 11:58:12;;;;;;;1999.90;999.90;;;8.40;1.00;;;;;;5052182;28;20833;-69
2023/02/01 12:01:04;;;;;;;1999.90;999.90;;;8.70;1.00;;;;;;5051994;28;20429;-69
2023/02/01 12:03:51;;;;;;;1999.90;999.90;;;8.60;1.00;;;;;;5051816;28;20444;-69
2023/02/01 12:06:34;;;;;;;1999.90;999.90;;;8.60;1.00;;;;;;5052086;28;20893;-69
2023/02/01 12:09:25;;;;;;;1999.90;999.90;;;8.70;1.00;;;;;;5052036;28;20428;-69
2023/02/01 12:12:02;;;;;;;1999.90;999.90;;;8.60;99.90;;;;;;5051387;28;20432;-69
2023/02/01 12:14:46;;;;;;;1999.90;999.90;;;8.90;99.90;;;;;;5051845;28;20933;-68
2023/02/01 12:17:23;;;;;;;1999.90;999.90;;;8.40;99.90;;;;;;5052173;28;20403;-69
2023/02/01 12:20:17;;;;;;;1999.90;999.90;;;8.30;1.00;;;;;;5051443;28;20415;-69
2023/02/01 12:22:56;;;;;;;1999.90;999.90;;;8.30;99.90;;;;;;5051965;28;20430;-70
2023/02/01 12:25:33;;;;;;;1999.90;999.90;;;8.20;1.00;;;;;;5051570;28;20844;-70
2023/02/01 12:28:29;;;;;;;1999.90;999.90;;;8.20;99.90;;;;;;5051520;28;20414;-70
2023/02/01 12:31:04;;;;;;;1999.90;999.90;;;8.00;1.00;;;;;;5051362;28;20453;-70
2023/02/01 12:33:42;;;;;;;1999.90;999.90;;;8.00;1.00;;;;;;5050955;28;20425;-70
2023/02/01 12:36:17;;;;;;;1999.90;999.90;;;8.20;99.90;;;;;;5051728;28;20409;-69
2023/02/01 12:38:45;;;;;;;1999.90;999.90;;;8.30;1.00;;;;;;5051694;28;20410;-69
2023/02/01 12:41:44;;;;;;;1999.90;999.90;;;8.60;99.90;;;;;;5051208;28;20902;-69
2023/02/01 12:44:32;;;;;;;1999.90;999.90;;;9.20;99.90;;;;;;5051954;28;20422;-69
2023/02/01 12:47:24;;;;;;;1999.90;999.90;;;9.40;99.90;;;;;;5051641;28;20398;-69
2023/02/01 12:50:26;;;;;;;1999.90;999.90;;;9.00;1.00;;;;;;5023615;22;20558;-69
2023/02/01 12:52:56;;;;;;;1999.90;999.90;;;8.70;99.90;;;;;;5011819;28;20425;-69
2023/02/01 12:55:32;;;;;;;1999.90;999.90;;;8.40;1.00;;;;;;5011331;28;20409;-69
2023/02/01 12:58:21;;;;;;;1999.90;999.90;;;8.30;99.90;;;;;;4993836;28;20412;-69